sensor_id;sensor_type;location;lat;lon;timestamp;temperature;humidity
10306;DHT22;5198;52.382;9.020;2022-10-31T00:02:45;15.10;99.90
10306;DHT22;5198;52.382;9.020;2022-10-31T00:06:48;15.00;99.90
10306;DHT22;5198;52.382;9.020;2022-10-31T00:10:51;15.00;99.90
10306;DHT22;5198;52.382;9.020;2022-10-31T00:14:55;15.00;99.90
10306;DHT22;5198;52.382;9.020;2022-10-31T00:18:58;15.00;99.90
10306;DHT22;5198;52.382;9.020;2022-10-31T00:23:02;14.90;99.90
10306;DHT22;5198;52.382;9.020;2022-10-31T00:27:05;14.90;99.90
10306;DHT22;5198;52.382;9.020;2022-10-31T00:31:10;14.90;99.90
10306;DHT22;5198;52.382;9.020;2022-10-31T00:35:13;14.90;99.90
10306;DHT22;5198;52.382;9.020;2022-10-31T00:39:16;14.80;99.90
10306;DHT22;5198;52.382;9.020;2022-10-31T00:43:20;14.80;99.90
10306;DHT22;5198;52.382;9.020;2022-10-31T00:47:26;14.80;99.90
10306;DHT22;5198;52.382;9.020;2022-10-31T00:51:29;14.80;99.90
10306;DHT22;5198;52.382;9.020;2022-10-31T00:55:32;14.80;99.90
10306;DHT22;5198;52.382;9.020;2022-10-31T00:59:35;14.80;99.90
10306;DHT22;5198;52.382;9.020;2022-10-31T01:03:39;14.80;99.90
10306;DHT22;5198;52.382;9.020;2022-10-31T01:07:42;14.80;99.90
10306;DHT22;5198;52.382;9.020;2022-10-31T01:11:45;14.80;99.90
10306;DHT22;5198;52.382;9.020;2022-10-31T01:15:53;14.80;99.90
10306;DHT22;5198;52.382;9.020;2022-10-31T01:19:57;14.80;99.90
10306;DHT22;5198;52.382;9.020;2022-10-31T01:24:00;14.70;99.90
10306;DHT22;5198;52.382;9.020;2022-10-31T01:28:04;14.70;99.90
10306;DHT22;5198;52.382;9.020;2022-10-31T01:32:07;14.70;99.90
10306;DHT22;5198;52.382;9.020;2022-10-31T01:36:22;14.70;99.90
10306;DHT22;5198;52.382;9.020;2022-10-31T01:40:28;14.60;99.90
10306;DHT22;5198;52.382;9.020;2022-10-31T01:44:51;14.60;99.90
10306;DHT22;5198;52.382;9.020;2022-10-31T01:48:54;14.60;99.90
10306;DHT22;5198;52.382;9.020;2022-10-31T01:52:59;14.50;99.90
10306;DHT22;5198;52.382;9.020;2022-10-31T01:57:03;14.50;99.90
10306;DHT22;5198;52.382;9.020;2022-10-31T02:01:06;14.40;99.90
10306;DHT22;5198;52.382;9.020;2022-10-31T02:05:10;14.40;99.90
10306;DHT22;5198;52.382;9.020;2022-10-31T02:09:16;14.40;99.90
10306;DHT22;5198;52.382;9.020;2022-10-31T02:13:20;14.40;99.90
10306;DHT22;5198;52.382;9.020;2022-10-31T02:17:23;14.30;99.90
10306;DHT22;5198;52.382;9.020;2022-10-31T02:21:29;14.30;99.90
10306;DHT22;5198;52.382;9.020;2022-10-31T02:25:41;14.30;99.90
10306;DHT22;5198;52.382;9.020;2022-10-31T02:29:50;14.20;99.90
10306;DHT22;5198;52.382;9.020;2022-10-31T02:33:57;14.10;99.90
10306;DHT22;5198;52.382;9.020;2022-10-31T02:38:11;14.00;99.90
10306;DHT22;5198;52.382;9.020;2022-10-31T02:42:16;14.00;99.90
10306;DHT22;5198;52.382;9.020;2022-10-31T02:46:23;13.90;99.90
10306;DHT22;5198;52.382;9.020;2022-10-31T02:50:29;13.80;99.90
10306;DHT22;5198;52.382;9.020;2022-10-31T02:54:33;13.80;99.90
10306;DHT22;5198;52.382;9.020;2022-10-31T02:58:36;13.80;99.90
10306;DHT22;5198;52.382;9.020;2022-10-31T03:02:43;13.70;99.90
10306;DHT22;5198;52.382;9.020;2022-10-31T03:06:51;13.60;99.90
10306;DHT22;5198;52.382;9.020;2022-10-31T03:10:56;13.60;99.90
10306;DHT22;5198;52.382;9.020;2022-10-31T03:15:02;13.50;99.90
10306;DHT22;5198;52.382;9.020;2022-10-31T03:19:09;13.50;99.90
10306;DHT22;5198;52.382;9.020;2022-10-31T03:23:15;13.50;99.90
10306;DHT22;5198;52.382;9.020;2022-10-31T03:27:20;13.50;99.90
10306;DHT22;5198;52.382;9.020;2022-10-31T03:31:25;13.40;99.90
10306;DHT22;5198;52.382;9.020;2022-10-31T03:35:30;13.40;99.90
10306;DHT22;5198;52.382;9.020;2022-10-31T03:39:35;13.30;99.90
10306;DHT22;5198;52.382;9.020;2022-10-31T03:43:40;13.30;99.90
10306;DHT22;5198;52.382;9.020;2022-10-31T03:47:44;13.30;99.90
10306;DHT22;5198;52.382;9.020;2022-10-31T03:51:49;13.20;99.90
10306;DHT22;5198;52.382;9.020;2022-10-31T03:55:57;13.20;99.90
10306;DHT22;5198;52.382;9.020;2022-10-31T04:00:03;13.10;99.90
10306;DHT22;5198;52.382;9.020;2022-10-31T04:04:07;13.10;99.90
10306;DHT22;5198;52.382;9.020;2022-10-31T04:08:11;13.00;99.90
10306;DHT22;5198;52.382;9.020;2022-10-31T04:12:17;13.00;99.90
10306;DHT22;5198;52.382;9.020;2022-10-31T04:16:20;12.90;99.90
10306;DHT22;5198;52.382;9.020;2022-10-31T04:20:29;12.90;99.90
10306;DHT22;5198;52.382;9.020;2022-10-31T04:24:32;12.80;99.90
10306;DHT22;5198;52.382;9.020;2022-10-31T04:28:36;12.80;99.90
10306;DHT22;5198;52.382;9.020;2022-10-31T04:32:40;12.70;99.90
10306;DHT22;5198;52.382;9.020;2022-10-31T04:36:43;12.70;99.90
10306;DHT22;5198;52.382;9.020;2022-10-31T04:40:46;12.70;99.90
10306;DHT22;5198;52.382;9.020;2022-10-31T04:44:50;12.60;99.90
10306;DHT22;5198;52.382;9.020;2022-10-31T04:48:53;12.60;99.90
10306;DHT22;5198;52.382;9.020;2022-10-31T04:52:56;12.50;99.90
10306;DHT22;5198;52.382;9.020;2022-10-31T04:56:58;12.50;99.90
10306;DHT22;5198;52.382;9.020;2022-10-31T05:01:03;12.50;99.90
10306;DHT22;5198;52.382;9.020;2022-10-31T05:05:06;12.40;99.90
10306;DHT22;5198;52.382;9.020;2022-10-31T05:09:09;12.30;99.90
10306;DHT22;5198;52.382;9.020;2022-10-31T05:13:12;12.30;99.90
10306;DHT22;5198;52.382;9.020;2022-10-31T05:17:18;12.20;99.90
10306;DHT22;5198;52.382;9.020;2022-10-31T05:21:21;12.20;99.90
10306;DHT22;5198;52.382;9.020;2022-10-31T05:25:24;12.10;99.90
10306;DHT22;5198;52.382;9.020;2022-10-31T05:29:28;12.10;99.90
10306;DHT22;5198;52.382;9.020;2022-10-31T05:33:36;12.10;99.90
10306;DHT22;5198;52.382;9.020;2022-10-31T05:37:39;12.10;99.90
10306;DHT22;5198;52.382;9.020;2022-10-31T05:41:48;12.10;99.90
10306;DHT22;5198;52.382;9.020;2022-10-31T05:45:54;12.00;99.90
10306;DHT22;5198;52.382;9.020;2022-10-31T05:49:58;11.90;99.90
10306;DHT22;5198;52.382;9.020;2022-10-31T05:54:01;11.80;99.90
10306;DHT22;5198;52.382;9.020;2022-10-31T05:58:09;11.80;99.90
10306;DHT22;5198;52.382;9.020;2022-10-31T06:02:12;11.70;99.90
10306;DHT22;5198;52.382;9.020;2022-10-31T06:06:16;11.60;99.90
10306;DHT22;5198;52.382;9.020;2022-10-31T06:10:19;11.60;99.90
10306;DHT22;5198;52.382;9.020;2022-10-31T06:14:22;11.50;99.90
10306;DHT22;5198;52.382;9.020;2022-10-31T06:18:25;11.50;99.90
10306;DHT22;5198;52.382;9.020;2022-10-31T06:22:30;11.50;99.90
10306;DHT22;5198;52.382;9.020;2022-10-31T06:26:32;11.40;99.90
10306;DHT22;5198;52.382;9.020;2022-10-31T06:30:35;11.50;99.90
10306;DHT22;5198;52.382;9.020;2022-10-31T06:34:38;11.40;99.90
10306;DHT22;5198;52.382;9.020;2022-10-31T06:38:43;11.40;99.90
10306;DHT22;5198;52.382;9.020;2022-10-31T06:42:46;11.40;99.90
10306;DHT22;5198;52.382;9.020;2022-10-31T06:46:49;11.40;99.90
10306;DHT22;5198;52.382;9.020;2022-10-31T06:50:52;11.40;99.90
10306;DHT22;5198;52.382;9.020;2022-10-31T06:55:01;11.40;99.90
10306;DHT22;5198;52.382;9.020;2022-10-31T06:59:04;11.40;99.90
10306;DHT22;5198;52.382;9.020;2022-10-31T07:03:09;11.40;99.90
10306;DHT22;5198;52.382;9.020;2022-10-31T07:07:13;11.50;99.90
10306;DHT22;5198;52.382;9.020;2022-10-31T07:11:17;11.50;99.90
10306;DHT22;5198;52.382;9.020;2022-10-31T07:15:20;11.60;99.90
10306;DHT22;5198;52.382;9.020;2022-10-31T07:19:23;11.60;99.90
10306;DHT22;5198;52.382;9.020;2022-10-31T07:23:26;11.70;99.90
10306;DHT22;5198;52.382;9.020;2022-10-31T07:27:34;11.70;99.90
10306;DHT22;5198;52.382;9.020;2022-10-31T07:31:45;11.80;99.90
10306;DHT22;5198;52.382;9.020;2022-10-31T07:35:48;11.90;99.90
10306;DHT22;5198;52.382;9.020;2022-10-31T07:39:50;12.00;99.90
10306;DHT22;5198;52.382;9.020;2022-10-31T07:43:55;12.10;99.90
10306;DHT22;5198;52.382;9.020;2022-10-31T07:47:58;12.20;99.90
10306;DHT22;5198;52.382;9.020;2022-10-31T07:52:01;12.30;99.90
10306;DHT22;5198;52.382;9.020;2022-10-31T07:56:04;12.40;99.90
10306;DHT22;5198;52.382;9.020;2022-10-31T08:00:09;12.50;99.90
10306;DHT22;5198;52.382;9.020;2022-10-31T08:04:12;12.60;99.90
10306;DHT22;5198;52.382;9.020;2022-10-31T08:08:15;12.70;99.90
10306;DHT22;5198;52.382;9.020;2022-10-31T08:12:19;12.90;99.90
10306;DHT22;5198;52.382;9.020;2022-10-31T08:16:23;13.10;99.90
10306;DHT22;5198;52.382;9.020;2022-10-31T08:20:26;13.40;99.90
10306;DHT22;5198;52.382;9.020;2022-10-31T08:24:29;13.60;99.90
10306;DHT22;5198;52.382;9.020;2022-10-31T08:28:32;13.90;99.90
10306;DHT22;5198;52.382;9.020;2022-10-31T08:32:36;14.20;99.90
10306;DHT22;5198;52.382;9.020;2022-10-31T08:36:39;14.40;99.90
10306;DHT22;5198;52.382;9.020;2022-10-31T08:40:41;14.70;99.90
10306;DHT22;5198;52.382;9.020;2022-10-31T08:44:44;14.90;99.90
10306;DHT22;5198;52.382;9.020;2022-10-31T08:48:49;15.00;99.90
10306;DHT22;5198;52.382;9.020;2022-10-31T08:52:51;15.10;99.90
10306;DHT22;5198;52.382;9.020;2022-10-31T08:57:07;15.10;99.90
10306;DHT22;5198;52.382;9.020;2022-10-31T09:01:10;15.20;99.90
10306;DHT22;5198;52.382;9.020;2022-10-31T09:05:14;15.30;99.90
10306;DHT22;5198;52.382;9.020;2022-10-31T09:09:17;15.40;99.90
10306;DHT22;5198;52.382;9.020;2022-10-31T09:13:20;15.50;99.90
10306;DHT22;5198;52.382;9.020;2022-10-31T09:17:28;15.60;99.90
10306;DHT22;5198;52.382;9.020;2022-10-31T09:21:32;15.80;99.90
10306;DHT22;5198;52.382;9.020;2022-10-31T09:25:35;15.90;99.90
10306;DHT22;5198;52.382;9.020;2022-10-31T09:29:39;16.10;99.90
10306;DHT22;5198;52.382;9.020;2022-10-31T09:33:41;16.40;99.90
10306;DHT22;5198;52.382;9.020;2022-10-31T09:37:46;17.00;99.90
10306;DHT22;5198;52.382;9.020;2022-10-31T09:41:53;17.60;99.90
10306;DHT22;5198;52.382;9.020;2022-10-31T09:45:59;18.50;99.90
10306;DHT22;5198;52.382;9.020;2022-10-31T09:50:11;19.30;99.90
10306;DHT22;5198;52.382;9.020;2022-10-31T09:54:18;19.50;99.90
10306;DHT22;5198;52.382;9.020;2022-10-31T09:58:23;20.10;99.90
10306;DHT22;5198;52.382;9.020;2022-10-31T10:02:29;20.70;99.90
10306;DHT22;5198;52.382;9.020;2022-10-31T10:06:33;21.20;99.90
10306;DHT22;5198;52.382;9.020;2022-10-31T10:10:42;21.50;99.90
10306;DHT22;5198;52.382;9.020;2022-10-31T10:14:59;21.90;99.90
10306;DHT22;5198;52.382;9.020;2022-10-31T10:19:07;22.00;99.90
10306;DHT22;5198;52.382;9.020;2022-10-31T10:23:22;22.30;99.90
10306;DHT22;5198;52.382;9.020;2022-10-31T10:27:30;22.40;99.90
10306;DHT22;5198;52.382;9.020;2022-10-31T10:31:37;22.30;99.90
10306;DHT22;5198;52.382;9.020;2022-10-31T10:35:42;22.10;99.90
10306;DHT22;5198;52.382;9.020;2022-10-31T10:39:48;22.00;99.90
10306;DHT22;5198;52.382;9.020;2022-10-31T10:43:54;22.00;99.90
10306;DHT22;5198;52.382;9.020;2022-10-31T10:47:58;22.10;99.90
10306;DHT22;5198;52.382;9.020;2022-10-31T10:52:03;22.20;99.90
10306;DHT22;5198;52.382;9.020;2022-10-31T10:56:40;22.40;99.90
10306;DHT22;5198;52.382;9.020;2022-10-31T11:00:45;22.40;99.90
10306;DHT22;5198;52.382;9.020;2022-10-31T11:04:49;22.30;99.90
10306;DHT22;5198;52.382;9.020;2022-10-31T11:08:53;22.20;99.90
10306;DHT22;5198;52.382;9.020;2022-10-31T11:12:58;22.20;99.90
10306;DHT22;5198;52.382;9.020;2022-10-31T11:17:09;22.20;99.90
10306;DHT22;5198;52.382;9.020;2022-10-31T11:21:19;22.20;99.90
10306;DHT22;5198;52.382;9.020;2022-10-31T11:25:23;22.10;99.90
10306;DHT22;5198;52.382;9.020;2022-10-31T11:29:26;21.90;99.90
10306;DHT22;5198;52.382;9.020;2022-10-31T11:33:31;21.80;99.90
10306;DHT22;5198;52.382;9.020;2022-10-31T11:37:35;21.70;99.90
10306;DHT22;5198;52.382;9.020;2022-10-31T11:41:42;21.70;99.90
10306;DHT22;5198;52.382;9.020;2022-10-31T11:45:46;21.70;99.90
10306;DHT22;5198;52.382;9.020;2022-10-31T11:49:50;21.80;99.90
10306;DHT22;5198;52.382;9.020;2022-10-31T11:53:54;21.80;99.90
10306;DHT22;5198;52.382;9.020;2022-10-31T11:58:03;21.80;99.90
10306;DHT22;5198;52.382;9.020;2022-10-31T12:06:13;22.00;99.90
10306;DHT22;5198;52.382;9.020;2022-10-31T12:10:19;22.30;99.90
10306;DHT22;5198;52.382;9.020;2022-10-31T12:14:27;22.50;99.90
10306;DHT22;5198;52.382;9.020;2022-10-31T12:18:39;22.60;99.90
10306;DHT22;5198;52.382;9.020;2022-10-31T12:22:47;22.60;99.90
10306;DHT22;5198;52.382;9.020;2022-10-31T12:26:55;22.60;99.90
10306;DHT22;5198;52.382;9.020;2022-10-31T12:31:01;22.70;99.90
10306;DHT22;5198;52.382;9.020;2022-10-31T12:35:09;22.60;99.90
10306;DHT22;5198;52.382;9.020;2022-10-31T12:39:22;22.60;99.90
10306;DHT22;5198;52.382;9.020;2022-10-31T12:43:34;22.40;99.90
10306;DHT22;5198;52.382;9.020;2022-10-31T12:47:41;22.30;99.90
10306;DHT22;5198;52.382;9.020;2022-10-31T12:51:48;22.10;99.90
10306;DHT22;5198;52.382;9.020;2022-10-31T12:55:58;22.00;99.90
10306;DHT22;5198;52.382;9.020;2022-10-31T13:00:03;21.80;99.90
10306;DHT22;5198;52.382;9.020;2022-10-31T13:04:11;21.70;99.90
10306;DHT22;5198;52.382;9.020;2022-10-31T13:08:15;21.50;99.90
10306;DHT22;5198;52.382;9.020;2022-10-31T13:12:21;21.40;99.90
10306;DHT22;5198;52.382;9.020;2022-10-31T13:16:26;21.30;99.90
10306;DHT22;5198;52.382;9.020;2022-10-31T13:20:32;21.20;99.90
10306;DHT22;5198;52.382;9.020;2022-10-31T13:24:36;21.20;99.90
10306;DHT22;5198;52.382;9.020;2022-10-31T13:28:43;21.10;99.90
10306;DHT22;5198;52.382;9.020;2022-10-31T13:32:48;21.00;99.90
10306;DHT22;5198;52.382;9.020;2022-10-31T13:36:55;20.90;99.90
10306;DHT22;5198;52.382;9.020;2022-10-31T13:41:00;20.70;99.90
10306;DHT22;5198;52.382;9.020;2022-10-31T13:45:12;20.70;99.90
10306;DHT22;5198;52.382;9.020;2022-10-31T13:49:23;20.50;99.90
10306;DHT22;5198;52.382;9.020;2022-10-31T13:53:35;20.50;99.90
10306;DHT22;5198;52.382;9.020;2022-10-31T13:57:38;20.30;99.90
10306;DHT22;5198;52.382;9.020;2022-10-31T14:01:49;20.20;99.90
10306;DHT22;5198;52.382;9.020;2022-10-31T14:05:52;20.20;99.90
10306;DHT22;5198;52.382;9.020;2022-10-31T14:09:57;20.00;99.90
10306;DHT22;5198;52.382;9.020;2022-10-31T14:14:01;20.00;99.90
10306;DHT22;5198;52.382;9.020;2022-10-31T14:18:06;19.90;99.90
10306;DHT22;5198;52.382;9.020;2022-10-31T14:22:20;19.80;99.90
10306;DHT22;5198;52.382;9.020;2022-10-31T14:26:31;19.70;99.90
10306;DHT22;5198;52.382;9.020;2022-10-31T14:30:34;19.60;99.90
10306;DHT22;5198;52.382;9.020;2022-10-31T14:34:40;19.50;99.90
10306;DHT22;5198;52.382;9.020;2022-10-31T14:38:47;19.40;99.90
10306;DHT22;5198;52.382;9.020;2022-10-31T14:47:16;19.30;99.90
10306;DHT22;5198;52.382;9.020;2022-10-31T14:51:23;19.20;99.90
10306;DHT22;5198;52.382;9.020;2022-10-31T14:55:27;19.10;99.90
10306;DHT22;5198;52.382;9.020;2022-10-31T14:59:32;19.10;99.90
10306;DHT22;5198;52.382;9.020;2022-10-31T15:03:36;19.00;99.90
10306;DHT22;5198;52.382;9.020;2022-10-31T15:07:54;18.90;99.90
10306;DHT22;5198;52.382;9.020;2022-10-31T15:11:58;18.80;99.90
10306;DHT22;5198;52.382;9.020;2022-10-31T15:16:01;18.70;99.90
10306;DHT22;5198;52.382;9.020;2022-10-31T15:20:04;18.70;99.90
10306;DHT22;5198;52.382;9.020;2022-10-31T15:24:11;18.60;99.90
10306;DHT22;5198;52.382;9.020;2022-10-31T15:28:21;18.50;99.90
10306;DHT22;5198;52.382;9.020;2022-10-31T15:32:25;18.40;99.90
10306;DHT22;5198;52.382;9.020;2022-10-31T15:36:28;18.20;99.90
10306;DHT22;5198;52.382;9.020;2022-10-31T15:40:37;18.20;99.90
10306;DHT22;5198;52.382;9.020;2022-10-31T15:44:40;18.10;99.90
10306;DHT22;5198;52.382;9.020;2022-10-31T15:48:44;18.00;99.90
10306;DHT22;5198;52.382;9.020;2022-10-31T15:52:47;17.90;99.90
10306;DHT22;5198;52.382;9.020;2022-10-31T15:56:53;17.90;99.90
10306;DHT22;5198;52.382;9.020;2022-10-31T16:00:59;17.80;99.90
10306;DHT22;5198;52.382;9.020;2022-10-31T16:05:14;17.70;99.90
10306;DHT22;5198;52.382;9.020;2022-10-31T16:09:19;17.70;99.90
10306;DHT22;5198;52.382;9.020;2022-10-31T16:13:25;17.60;99.90
10306;DHT22;5198;52.382;9.020;2022-10-31T16:17:30;17.50;99.90
10306;DHT22;5198;52.382;9.020;2022-10-31T16:21:34;17.50;99.90
10306;DHT22;5198;52.382;9.020;2022-10-31T16:25:38;17.40;99.90
10306;DHT22;5198;52.382;9.020;2022-10-31T16:29:43;17.40;99.90
10306;DHT22;5198;52.382;9.020;2022-10-31T16:33:46;17.40;99.90
10306;DHT22;5198;52.382;9.020;2022-10-31T16:37:49;17.40;99.90
10306;DHT22;5198;52.382;9.020;2022-10-31T16:41:52;17.30;99.90
10306;DHT22;5198;52.382;9.020;2022-10-31T16:45:59;17.30;99.90
10306;DHT22;5198;52.382;9.020;2022-10-31T16:50:05;17.30;99.90
10306;DHT22;5198;52.382;9.020;2022-10-31T16:54:08;17.20;99.90
10306;DHT22;5198;52.382;9.020;2022-10-31T16:58:14;17.20;99.90
10306;DHT22;5198;52.382;9.020;2022-10-31T17:02:19;17.20;99.90
10306;DHT22;5198;52.382;9.020;2022-10-31T17:06:22;17.20;99.90
10306;DHT22;5198;52.382;9.020;2022-10-31T17:10:28;17.10;99.90
10306;DHT22;5198;52.382;9.020;2022-10-31T17:14:31;17.10;99.90
10306;DHT22;5198;52.382;9.020;2022-10-31T17:18:36;17.10;99.90
10306;DHT22;5198;52.382;9.020;2022-10-31T17:22:39;17.00;99.90
10306;DHT22;5198;52.382;9.020;2022-10-31T17:26:42;17.00;99.90
10306;DHT22;5198;52.382;9.020;2022-10-31T17:30:44;17.00;99.90
10306;DHT22;5198;52.382;9.020;2022-10-31T17:34:49;17.00;99.90
10306;DHT22;5198;52.382;9.020;2022-10-31T17:38:52;16.90;99.90
10306;DHT22;5198;52.382;9.020;2022-10-31T17:42:55;16.90;99.90
10306;DHT22;5198;52.382;9.020;2022-10-31T17:46:59;16.90;99.90
10306;DHT22;5198;52.382;9.020;2022-10-31T17:51:04;16.80;99.90
10306;DHT22;5198;52.382;9.020;2022-10-31T17:55:08;16.80;99.90
10306;DHT22;5198;52.382;9.020;2022-10-31T17:59:12;16.80;99.90
10306;DHT22;5198;52.382;9.020;2022-10-31T18:03:15;16.80;99.90
10306;DHT22;5198;52.382;9.020;2022-10-31T18:07:19;16.70;99.90
10306;DHT22;5198;52.382;9.020;2022-10-31T18:11:22;16.70;99.90
10306;DHT22;5198;52.382;9.020;2022-10-31T18:15:25;16.70;99.90
10306;DHT22;5198;52.382;9.020;2022-10-31T18:19:28;16.70;99.90
10306;DHT22;5198;52.382;9.020;2022-10-31T18:23:32;16.60;99.90
10306;DHT22;5198;52.382;9.020;2022-10-31T18:27:35;16.60;99.90
10306;DHT22;5198;52.382;9.020;2022-10-31T18:31:38;16.60;99.90
10306;DHT22;5198;52.382;9.020;2022-10-31T18:35:41;16.60;99.90
10306;DHT22;5198;52.382;9.020;2022-10-31T18:39:45;16.50;99.90
10306;DHT22;5198;52.382;9.020;2022-10-31T18:43:49;16.50;99.90
10306;DHT22;5198;52.382;9.020;2022-10-31T18:47:54;16.40;99.90
10306;DHT22;5198;52.382;9.020;2022-10-31T18:51:57;16.40;99.90
10306;DHT22;5198;52.382;9.020;2022-10-31T18:56:05;16.40;99.90
10306;DHT22;5198;52.382;9.020;2022-10-31T19:00:08;16.40;99.90
10306;DHT22;5198;52.382;9.020;2022-10-31T19:04:11;16.30;99.90
10306;DHT22;5198;52.382;9.020;2022-10-31T19:08:14;16.30;99.90
10306;DHT22;5198;52.382;9.020;2022-10-31T19:12:19;16.30;99.90
10306;DHT22;5198;52.382;9.020;2022-10-31T19:16:21;16.30;99.90
10306;DHT22;5198;52.382;9.020;2022-10-31T19:20:24;16.20;99.90
10306;DHT22;5198;52.382;9.020;2022-10-31T19:24:27;16.20;99.90
10306;DHT22;5198;52.382;9.020;2022-10-31T19:28:32;16.10;99.90
10306;DHT22;5198;52.382;9.020;2022-10-31T19:32:35;16.10;99.90
10306;DHT22;5198;52.382;9.020;2022-10-31T19:36:38;16.10;99.90
10306;DHT22;5198;52.382;9.020;2022-10-31T19:40:43;16.00;99.90
10306;DHT22;5198;52.382;9.020;2022-10-31T19:44:47;16.00;99.90
10306;DHT22;5198;52.382;9.020;2022-10-31T19:48:50;16.00;99.90
10306;DHT22;5198;52.382;9.020;2022-10-31T19:52:53;16.00;99.90
10306;DHT22;5198;52.382;9.020;2022-10-31T19:56:56;15.90;99.90
10306;DHT22;5198;52.382;9.020;2022-10-31T20:01:00;15.90;99.90
10306;DHT22;5198;52.382;9.020;2022-10-31T20:05:07;15.90;99.90
10306;DHT22;5198;52.382;9.020;2022-10-31T20:09:11;15.80;99.90
10306;DHT22;5198;52.382;9.020;2022-10-31T20:13:15;15.80;99.90
10306;DHT22;5198;52.382;9.020;2022-10-31T20:17:19;15.80;99.90
10306;DHT22;5198;52.382;9.020;2022-10-31T20:21:23;15.70;99.90
10306;DHT22;5198;52.382;9.020;2022-10-31T20:25:28;15.70;99.90
10306;DHT22;5198;52.382;9.020;2022-10-31T20:29:32;15.60;99.90
10306;DHT22;5198;52.382;9.020;2022-10-31T20:33:36;15.50;99.90
10306;DHT22;5198;52.382;9.020;2022-10-31T20:37:39;15.50;99.90
10306;DHT22;5198;52.382;9.020;2022-10-31T20:41:42;15.50;99.90
10306;DHT22;5198;52.382;9.020;2022-10-31T20:45:45;15.40;99.90
10306;DHT22;5198;52.382;9.020;2022-10-31T20:49:49;15.40;99.90
10306;DHT22;5198;52.382;9.020;2022-10-31T20:53:52;15.40;99.90
10306;DHT22;5198;52.382;9.020;2022-10-31T20:57:56;15.40;99.90
10306;DHT22;5198;52.382;9.020;2022-10-31T21:01:59;15.40;99.90
10306;DHT22;5198;52.382;9.020;2022-10-31T21:06:03;15.50;99.90
10306;DHT22;5198;52.382;9.020;2022-10-31T21:10:06;15.50;99.90
10306;DHT22;5198;52.382;9.020;2022-10-31T21:18:21;15.50;99.90
10306;DHT22;5198;52.382;9.020;2022-10-31T21:22:28;15.50;99.90
10306;DHT22;5198;52.382;9.020;2022-10-31T21:26:32;15.50;99.90
10306;DHT22;5198;52.382;9.020;2022-10-31T21:30:38;15.40;99.90
10306;DHT22;5198;52.382;9.020;2022-10-31T21:34:41;15.40;99.90
10306;DHT22;5198;52.382;9.020;2022-10-31T21:38:49;15.30;99.90
10306;DHT22;5198;52.382;9.020;2022-10-31T21:42:53;15.30;99.90
10306;DHT22;5198;52.382;9.020;2022-10-31T21:46:57;15.20;99.90
10306;DHT22;5198;52.382;9.020;2022-10-31T21:51:03;15.20;99.90
10306;DHT22;5198;52.382;9.020;2022-10-31T21:55:09;15.10;99.90
10306;DHT22;5198;52.382;9.020;2022-10-31T21:59:12;15.00;99.90
10306;DHT22;5198;52.382;9.020;2022-10-31T22:03:15;15.00;99.90
10306;DHT22;5198;52.382;9.020;2022-10-31T22:07:18;15.00;99.90
10306;DHT22;5198;52.382;9.020;2022-10-31T22:11:22;14.90;99.90
10306;DHT22;5198;52.382;9.020;2022-10-31T22:15:28;14.90;99.90
10306;DHT22;5198;52.382;9.020;2022-10-31T22:19:33;14.90;99.90
10306;DHT22;5198;52.382;9.020;2022-10-31T22:23:36;14.90;99.90
10306;DHT22;5198;52.382;9.020;2022-10-31T22:27:41;14.90;99.90
10306;DHT22;5198;52.382;9.020;2022-10-31T22:31:45;14.90;99.90
10306;DHT22;5198;52.382;9.020;2022-10-31T22:35:53;14.90;99.90
10306;DHT22;5198;52.382;9.020;2022-10-31T22:39:57;14.80;99.90
10306;DHT22;5198;52.382;9.020;2022-10-31T22:44:02;14.80;99.90
10306;DHT22;5198;52.382;9.020;2022-10-31T22:48:05;14.70;99.90
10306;DHT22;5198;52.382;9.020;2022-10-31T22:52:08;14.70;99.90
10306;DHT22;5198;52.382;9.020;2022-10-31T22:56:12;14.70;99.90
10306;DHT22;5198;52.382;9.020;2022-10-31T23:00:17;14.60;99.90
10306;DHT22;5198;52.382;9.020;2022-10-31T23:04:20;14.60;99.90
10306;DHT22;5198;52.382;9.020;2022-10-31T23:08:23;14.50;99.90
10306;DHT22;5198;52.382;9.020;2022-10-31T23:12:28;14.50;99.90
10306;DHT22;5198;52.382;9.020;2022-10-31T23:16:52;14.50;99.90
10306;DHT22;5198;52.382;9.020;2022-10-31T23:20:55;14.50;99.90
10306;DHT22;5198;52.382;9.020;2022-10-31T23:24:58;14.40;99.90
10306;DHT22;5198;52.382;9.020;2022-10-31T23:29:02;14.40;99.90
10306;DHT22;5198;52.382;9.020;2022-10-31T23:33:05;14.40;99.90
10306;DHT22;5198;52.382;9.020;2022-10-31T23:37:08;14.30;99.90
10306;DHT22;5198;52.382;9.020;2022-10-31T23:41:11;14.30;99.90
10306;DHT22;5198;52.382;9.020;2022-10-31T23:45:14;14.30;99.90
10306;DHT22;5198;52.382;9.020;2022-10-31T23:49:18;14.30;99.90
10306;DHT22;5198;52.382;9.020;2022-10-31T23:53:21;14.20;99.90
10306;DHT22;5198;52.382;9.020;2022-10-31T23:57:25;14.20;99.90
